createdAt,value
2023-05-14T00:02:26.615Z,0
2023-05-14T00:07:45.924Z,0
2023-05-14T00:13:05.660Z,0
2023-05-14T00:18:24.622Z,0
2023-05-14T00:23:43.800Z,0
2023-05-14T00:29:03.332Z,0
2023-05-14T00:39:41.575Z,0
2023-05-14T00:45:00.979Z,0
2023-05-14T00:50:20.407Z,0
2023-05-14T00:55:39.259Z,0
2023-05-14T01:06:18.418Z,0
2023-05-14T01:11:37.268Z,0
2023-05-14T01:16:56.894Z,0
2023-05-14T01:22:16.388Z,0
2023-05-14T01:27:35.724Z,0
2023-05-14T01:32:54.772Z,0
2023-05-14T01:38:14.264Z,0
2023-05-14T01:43:33.984Z,0
2023-05-14T01:48:52.833Z,0
2023-05-14T01:54:12.278Z,0
2023-05-14T01:59:31.974Z,0
2023-05-14T02:04:51.640Z,0
2023-05-14T02:10:11.269Z,0
2023-05-14T02:15:30.994Z,0
2023-05-14T02:20:50.426Z,0
2023-05-14T02:26:09.430Z,0
2023-05-14T02:31:28.705Z,0
2023-05-14T02:36:57.393Z,0
2023-05-14T02:42:07.785Z,0
2023-05-14T02:47:26.791Z,0
2023-05-14T02:52:46.344Z,0
2023-05-14T02:58:05.926Z,0
2023-05-14T03:03:25.361Z,0
2023-05-14T03:14:03.721Z,0
2023-05-14T03:24:42.011Z,0
2023-05-14T03:30:01.285Z,7
2023-05-14T03:35:21.001Z,15
2023-05-14T03:40:40.735Z,24
2023-05-14T03:46:00.193Z,27.15
2023-05-14T03:51:19.004Z,31.3
2023-05-14T03:56:37.834Z,36.94
2023-05-14T04:01:56.842Z,36.84
2023-05-14T04:07:16.403Z,46.4
2023-05-14T04:17:54.834Z,75.3
2023-05-14T04:23:13.596Z,87.55
2023-05-14T04:28:33.149Z,92.39
2023-05-14T04:33:54.094Z,84.05
2023-05-14T04:39:11.854Z,84.14
2023-05-14T04:44:30.855Z,70.8
2023-05-14T04:49:58.886Z,86.1
2023-05-14T04:55:09.006Z,90.39
2023-05-14T05:00:28.615Z,91.1
2023-05-14T05:05:47.552Z,82.69
2023-05-14T05:11:06.950Z,88.69
2023-05-14T05:16:25.841Z,93
2023-05-14T05:21:45.084Z,85.29
2023-05-14T05:27:03.734Z,87.5
2023-05-14T05:37:41.937Z,111.39
2023-05-14T05:48:20.613Z,238.59
2023-05-14T05:53:39.752Z,276
2023-05-14T05:59:07.934Z,268.84
2023-05-14T06:04:18.439Z,337.94
2023-05-14T06:09:38.017Z,356.9
2023-05-14T06:14:57.567Z,344.09
2023-05-14T06:20:17.043Z,287.59
2023-05-14T06:25:36.062Z,294.19
2023-05-14T06:36:14.448Z,367.44
2023-05-14T06:41:33.708Z,383.75
2023-05-14T06:47:01.591Z,404.59
2023-05-14T06:52:12.258Z,393.54
2023-05-14T07:02:52.076Z,453.75
2023-05-14T07:08:11.010Z,455.15
2023-05-14T07:13:30.292Z,417.44
2023-05-14T07:18:49.344Z,426.84
2023-05-14T07:29:27.902Z,616.3
2023-05-14T07:34:47.406Z,543.4
2023-05-14T07:40:06.253Z,518.84
2023-05-14T07:45:25.142Z,536.75
2023-05-14T07:50:44.502Z,580.04
2023-05-14T07:56:03.568Z,653.3
2023-05-14T08:01:22.854Z,636.94
2023-05-14T08:12:01.993Z,574.94
2023-05-14T08:17:21.641Z,640.09
2023-05-14T08:27:59.973Z,21.19
2023-05-14T08:33:18.876Z,33.48
2023-05-14T08:38:37.634Z,599.8
2023-05-14T08:43:55.854Z,596.75
2023-05-14T08:49:14.941Z,598.89
2023-05-14T08:54:33.941Z,515.9
2023-05-14T08:59:53.166Z,611.84
2023-05-14T09:05:12.482Z,5.83
2023-05-14T09:10:31.569Z,31.53
2023-05-14T09:15:51.038Z,55.14
2023-05-14T09:21:10.397Z,579.9
2023-05-14T09:26:29.193Z,550.44
2023-05-14T09:31:48.094Z,588.84
2023-05-14T09:37:07.088Z,484.25
2023-05-14T09:42:26.453Z,457.54
2023-05-14T09:47:46.152Z,459.54
2023-05-14T09:53:05.397Z,416.4
2023-05-14T09:58:25.069Z,384.9
2023-05-14T10:03:43.995Z,387.04
2023-05-14T10:09:02.927Z,537.69
2023-05-14T10:14:21.982Z,596
2023-05-14T10:19:41.541Z,561.19
2023-05-14T10:25:00.542Z,596.25
2023-05-14T10:30:19.702Z,574
2023-05-14T10:35:38.814Z,409.69
2023-05-14T10:46:16.702Z,295.5
2023-05-14T10:51:36.386Z,336.5
2023-05-14T11:02:14.534Z,422.84
2023-05-14T11:07:44.029Z,419.25
2023-05-14T11:12:52.829Z,440.4
2023-05-14T11:18:12.176Z,447.84
2023-05-14T11:28:50.050Z,481.04
2023-05-14T11:34:09.745Z,528.25
2023-05-14T11:39:29.110Z,557
2023-05-14T11:44:48.742Z,582.19
2023-05-14T11:50:09.361Z,571.04
2023-05-14T11:55:27.082Z,617.29
2023-05-14T12:00:46.674Z,23.53
2023-05-14T12:11:24.609Z,630.05
2023-05-14T12:16:43.393Z,593.65
2023-05-14T12:27:21.687Z,53.78
2023-05-14T12:32:41.163Z,87.23
2023-05-14T12:38:00.517Z,281.23
2023-05-14T12:43:20.121Z,282.23
2023-05-14T12:48:38.880Z,188.78
2023-05-14T12:59:16.714Z,614.69
2023-05-14T13:09:55.425Z,12.44
2023-05-14T13:15:15.010Z,18.69
2023-05-14T13:20:34.415Z,18.83
2023-05-14T13:25:53.150Z,86.48
2023-05-14T13:32:16.497Z,19.89
2023-05-14T13:37:07.623Z,626.8
2023-05-14T13:42:26.420Z,11.08
2023-05-14T13:47:45.985Z,11.28
2023-05-14T13:53:05.210Z,405.22
2023-05-14T13:58:24.331Z,500.38
2023-05-14T14:03:43.591Z,409.07
2023-05-14T14:09:03.021Z,42.92
2023-05-14T14:14:21.734Z,617.38
2023-05-14T14:19:40.788Z,492.25
2023-05-14T14:24:59.555Z,457.84
2023-05-14T14:30:18.447Z,523.15
2023-05-14T14:35:37.899Z,144.94
2023-05-14T14:40:56.850Z,469.9
2023-05-14T14:46:15.809Z,276.78
2023-05-14T14:56:53.225Z,301.25
2023-05-14T15:02:12.564Z,298.79
2023-05-14T15:07:31.824Z,316.29
2023-05-14T15:12:50.831Z,616.94
2023-05-14T15:18:10.255Z,68.44
2023-05-14T15:23:29.848Z,564.34
2023-05-14T15:28:49.527Z,604.09
2023-05-14T15:34:08.850Z,47.73
2023-05-14T15:39:28.913Z,32.28
2023-05-14T15:50:06.679Z,160.79
2023-05-14T15:55:26.083Z,512.59
2023-05-14T16:00:45.537Z,175.9
2023-05-14T16:06:04.120Z,185.39
2023-05-14T16:11:23.016Z,391.69
2023-05-14T16:16:42.565Z,378.15
2023-05-14T16:22:01.775Z,348.34
2023-05-14T16:27:20.468Z,222.7
2023-05-14T16:32:39.614Z,183.2
2023-05-14T16:37:58.914Z,187.09
2023-05-14T16:43:18.568Z,164.34
2023-05-14T16:48:37.721Z,159.6
2023-05-14T16:59:16.011Z,140.85
2023-05-14T17:04:35.312Z,126.25
2023-05-14T17:10:04.784Z,115.19
2023-05-14T17:15:14.294Z,111.89
2023-05-14T17:20:33.845Z,112.64
2023-05-14T17:31:12.731Z,107.14
2023-05-14T17:36:31.582Z,101.75
2023-05-14T17:41:50.469Z,89.59
2023-05-14T17:47:09.733Z,81.95
2023-05-14T17:52:29.076Z,84.2
2023-05-14T17:57:48.265Z,94.2
2023-05-14T18:03:07.801Z,100.6
2023-05-14T18:08:26.731Z,94.79
2023-05-14T18:13:45.707Z,86.25
2023-05-14T18:19:04.951Z,76.34
2023-05-14T18:24:24.202Z,65.34
2023-05-14T18:29:43.085Z,47.54
2023-05-14T18:35:02.059Z,41.1
2023-05-14T18:40:20.851Z,35.69
2023-05-14T18:45:40.349Z,32.3
2023-05-14T18:50:59.245Z,27.1
2023-05-14T18:56:18.134Z,20
2023-05-14T19:01:36.950Z,11
2023-05-14T19:12:14.585Z,0
2023-05-14T19:17:33.437Z,0
2023-05-14T19:22:52.816Z,0
2023-05-14T19:28:11.722Z,0
2023-05-14T19:33:30.701Z,0
2023-05-14T19:38:49.794Z,0
2023-05-14T19:44:09.439Z,0
2023-05-14T19:49:28.178Z,0
2023-05-14T19:54:47.628Z,0
2023-05-14T20:00:06.427Z,0
2023-05-14T20:05:25.550Z,0
2023-05-14T20:10:44.920Z,0
2023-05-14T20:16:04.619Z,0
2023-05-14T20:21:24.325Z,0
2023-05-14T20:26:43.673Z,0
2023-05-14T20:32:03.254Z,0
2023-05-14T20:37:22.164Z,0
2023-05-14T20:42:40.969Z,0
2023-05-14T20:48:00.788Z,0
2023-05-14T20:53:19.781Z,0
2023-05-14T20:58:38.474Z,0
2023-05-14T21:04:07.523Z,0
2023-05-14T21:09:17.109Z,0
2023-05-14T21:14:36.342Z,0
2023-05-14T21:19:55.742Z,0
2023-05-14T21:25:15.064Z,0
2023-05-14T21:35:53.657Z,0
2023-05-14T21:41:12.506Z,0
2023-05-14T21:46:32.034Z,0
2023-05-14T21:51:50.871Z,0
2023-05-14T21:57:10.052Z,0
2023-05-14T22:02:29.262Z,0
2023-05-14T22:07:48.703Z,0
2023-05-14T22:13:07.656Z,0
2023-05-14T22:18:26.608Z,0
2023-05-14T22:23:45.971Z,0
2023-05-14T22:29:05.543Z,0
2023-05-14T22:34:24.613Z,0
2023-05-14T22:39:43.762Z,0
2023-05-14T22:45:03.200Z,0
2023-05-14T22:50:22.543Z,0
2023-05-14T22:55:41.373Z,0
2023-05-14T23:01:00.875Z,0
2023-05-14T23:06:20.208Z,0
2023-05-14T23:11:39.451Z,0
2023-05-14T23:16:58.547Z,0
2023-05-14T23:22:18.089Z,0
2023-05-14T23:27:37.011Z,0
2023-05-14T23:32:56.080Z,0
2023-05-14T23:38:15.173Z,0
2023-05-14T23:43:43.530Z,0
2023-05-14T23:54:13.507Z,0
2023-05-14T23:59:32.357Z,0
